Terminal Aerodrome Forecast
Issued by NWS Cleveland, OH

Home | Current Version | Previous Version | Text Only | Print | Product List | Glossary Off
Versions: 1 2 3 4 5 6 7 8 9 10 11 12 13

299
FTUS41 KCLE 051732
TAFYNG
TAF
KYNG 051732Z 0518/0618 30006KT P6SM BKN030
     FM051900 26007KT P6SM SCT040 BKN120=

USA.gov is the U.S. government's official web portal to all federal, state and local government web resources and services.